createdAt,value
2023-03-24T21:41:28.740Z,45.99
2023-03-24T21:43:56.350Z,48.73
2023-03-24T21:46:26.490Z,48.36
2023-03-24T21:48:59.420Z,48.24
2023-03-24T21:51:36.547Z,48.05
2023-03-24T21:54:06.399Z,47.83
2023-03-24T21:56:34.743Z,48.14
2023-03-24T21:59:02.423Z,47.91
2023-03-24T22:01:31.050Z,48.57
2023-03-24T22:03:58.834Z,48.85
2023-03-24T22:06:28.701Z,48.68
2023-03-24T22:08:58.417Z,48.97
2023-03-24T22:11:26.038Z,49.10
2023-03-24T22:13:53.791Z,48.96
2023-03-24T22:16:20.982Z,49.06
2023-03-24T22:18:48.253Z,48.81
2023-03-24T22:21:15.435Z,48.61
2023-03-24T22:23:43.099Z,48.83
2023-03-24T22:26:14.775Z,48.89
2023-03-24T22:28:42.473Z,48.88
2023-03-24T22:31:14.616Z,48.69
2023-03-24T22:33:42.258Z,48.69
2023-03-24T22:36:09.900Z,48.56
2023-03-24T22:38:37.516Z,48.75
2023-03-24T22:41:06.978Z,48.59
2023-03-24T22:43:35.292Z,48.47
2023-03-24T22:46:02.862Z,48.35
2023-03-24T22:48:30.323Z,48.26
2023-03-24T22:50:57.561Z,48.50
2023-03-24T22:53:24.776Z,48.32
2023-03-24T22:55:52.220Z,48.21
2023-03-24T22:58:19.716Z,48.27
2023-03-24T23:00:48.790Z,47.88
2023-03-24T23:03:16.051Z,48.14
2023-03-24T23:05:46.886Z,48.31
2023-03-24T23:08:15.579Z,48.23
2023-03-24T23:10:44.130Z,48.12
2023-03-24T23:13:11.362Z,48.17
2023-03-24T23:15:39.775Z,47.95
2023-03-24T23:18:07.079Z,48.13
2023-03-24T23:20:34.582Z,48.21
2023-03-24T23:23:02.799Z,48.12
2023-03-24T23:25:31.232Z,48.02
2023-03-24T23:27:58.834Z,48.10
2023-03-24T23:30:26.082Z,47.99
2023-03-24T23:32:53.627Z,48.22
2023-03-24T23:35:21.082Z,47.72
2023-03-24T23:37:48.311Z,47.99
2023-03-24T23:40:16.060Z,47.70
2023-03-24T23:42:46.245Z,47.76
2023-03-24T23:45:18.851Z,47.53
2023-03-24T23:47:49.559Z,47.34
2023-03-24T23:50:17.672Z,47.33
2023-03-24T23:52:44.918Z,47.08
2023-03-24T23:55:13.060Z,47.05
2023-03-24T23:57:41.562Z,47.65
